Time;durP1;ratioP1;P1;durP2;ratioP2;P2;SDS_P1;SDS_P2;PMS_P1;PMS_P2;Temp;Humidity;BMP_temperature;BMP_pressure;BME280_temperature;BME280_humidity;BME280_pressure;Samples;Min_cycle;Max_cycle;Signal;HPM_P1;HPM_P2
2023/04/06 00:01:06;;;;;;;2.47;2.28;;;-2.00;99.90;;;;;;5100342;28;20197;-84
2023/04/06 00:03:33;;;;;;;5.97;2.75;;;-2.10;99.90;;;;;;5098668;28;20225;-82
2023/04/06 00:06:00;;;;;;;6.60;3.72;;;-2.10;99.90;;;;;;5104229;28;20617;-81
2023/04/06 00:08:27;;;;;;;6.15;3.83;;;-2.10;99.90;;;;;;5098119;28;20196;-82
2023/04/06 00:10:54;;;;;;;8.18;3.38;;;-2.10;99.90;;;;;;5107605;28;20212;-85
2023/04/06 00:13:22;;;;;;;5.35;3.45;;;-2.10;99.90;;;;;;5098587;28;20288;-83
2023/04/06 00:15:49;;;;;;;2.97;2.60;;;-1.90;99.90;;;;;;5094202;28;20208;-84
2023/04/06 00:18:17;;;;;;;3.47;2.13;;;-1.90;99.90;;;;;;5097893;28;20197;-85
2023/04/06 00:20:45;;;;;;;3.53;2.70;;;-1.90;99.90;;;;;;5098105;28;20289;-82
2023/04/06 00:23:12;;;;;;;5.30;4.15;;;-2.00;99.90;;;;;;5103745;28;20256;-81
2023/04/06 00:25:39;;;;;;;4.13;3.72;;;-2.10;99.90;;;;;;5100185;28;20197;-82
2023/04/06 00:28:06;;;;;;;4.65;3.75;;;-2.20;99.90;;;;;;5103578;28;20232;-85
2023/04/06 00:30:33;;;;;;;4.30;3.53;;;-2.20;99.90;;;;;;5105032;28;20280;-82
2023/04/06 00:33:00;;;;;;;3.05;2.72;;;-2.30;99.90;;;;;;5105792;28;20207;-81
2023/04/06 00:35:28;;;;;;;7.00;3.50;;;-2.20;99.90;;;;;;5105689;28;20782;-83
2023/04/06 00:37:56;;;;;;;4.20;2.95;;;-2.10;99.90;;;;;;5103850;28;20219;-84
2023/04/06 00:40:23;;;;;;;3.65;2.20;;;-2.10;99.90;;;;;;5106019;28;20199;-84
2023/04/06 00:42:50;;;;;;;5.38;2.67;;;-2.10;99.90;;;;;;5100143;28;20225;-82
2023/04/06 00:45:17;;;;;;;4.80;3.20;;;-2.00;99.90;;;;;;5100849;28;20201;-85
2023/04/06 00:47:44;;;;;;;4.90;2.97;;;-2.00;99.90;;;;;;5106926;28;20787;-83
2023/04/06 00:50:11;;;;;;;1.90;1.77;;;-2.10;99.90;;;;;;5100960;28;20197;-83
2023/04/06 00:52:40;;;;;;;3.78;1.88;;;-2.30;99.90;;;;;;5103414;28;20734;-81
2023/04/06 00:55:08;;;;;;;3.08;1.92;;;-2.30;99.90;;;;;;5107307;28;20204;-83
2023/04/06 00:57:35;;;;;;;3.45;2.05;;;-2.40;99.90;;;;;;5105309;28;20775;-85
2023/04/06 01:00:02;;;;;;;4.10;2.40;;;-2.40;99.90;;;;;;5106247;28;20196;-84
2023/04/06 01:02:30;;;;;;;3.95;3.55;;;-2.40;99.90;;;;;;5100405;28;20237;-82
2023/04/06 01:04:57;;;;;;;2.28;1.63;;;-2.50;99.90;;;;;;5104542;28;20200;-82
2023/04/06 01:07:24;;;;;;;3.17;2.55;;;-2.50;99.90;;;;;;5104625;28;20235;-82
2023/04/06 01:09:54;;;;;;;3.33;2.85;;;-2.60;99.90;;;;;;5109570;28;20220;-83
2023/04/06 01:12:21;;;;;;;3.00;2.30;;;-2.60;99.90;;;;;;5109804;28;20209;-83
2023/04/06 01:14:49;;;;;;;4.13;2.50;;;-2.60;99.90;;;;;;5115587;28;20223;-83
2023/04/06 01:17:16;;;;;;;4.60;2.63;;;-2.70;99.90;;;;;;5118415;28;20209;-84
2023/04/06 01:19:44;;;;;;;2.55;1.98;;;-2.60;99.90;;;;;;5126804;28;20209;-81
2023/04/06 01:22:16;;;;;;;2.88;1.85;;;-2.60;99.90;;;;;;5105327;28;20253;-85
2023/04/06 01:24:43;;;;;;;3.33;2.30;;;-2.50;99.90;;;;;;5103367;28;20209;-81
2023/04/06 01:27:11;;;;;;;4.50;3.30;;;-2.30;99.90;;;;;;5094624;28;20258;-82
2023/04/06 01:29:40;;;;;;;3.47;2.38;;;-2.30;99.90;;;;;;5102491;28;20208;-82
2023/04/06 01:32:08;;;;;;;5.25;2.25;;;-2.40;99.90;;;;;;5107028;28;20197;-83
2023/04/06 01:34:35;;;;;;;2.80;2.58;;;-2.40;99.90;;;;;;5106748;28;20212;-84
2023/04/06 01:37:03;;;;;;;3.55;2.90;;;-2.50;99.90;;;;;;5098711;28;20202;-81
2023/04/06 01:39:31;;;;;;;3.22;2.20;;;-2.40;99.90;;;;;;5105367;28;20197;-83
2023/04/06 01:41:58;;;;;;;2.40;1.85;;;-2.30;99.90;;;;;;5098473;28;20741;-83
2023/04/06 01:44:25;;;;;;;2.22;2.00;;;-2.20;99.90;;;;;;5099211;28;20229;-81
2023/04/06 01:46:52;;;;;;;4.72;1.50;;;-2.10;99.90;;;;;;5109124;28;20661;-84
2023/04/06 01:49:20;;;;;;;3.28;1.73;;;-2.10;99.90;;;;;;5106292;28;20231;-84
2023/04/06 01:51:47;;;;;;;2.78;2.40;;;-2.10;99.90;;;;;;5102767;28;20197;-82
2023/04/06 01:54:14;;;;;;;2.30;1.52;;;-2.10;99.90;;;;;;5098127;28;20798;-81
2023/04/06 01:56:42;;;;;;;3.50;1.60;;;-2.10;99.90;;;;;;5103298;28;20315;-83
2023/04/06 01:59:09;;;;;;;3.97;2.15;;;-2.20;99.90;;;;;;5108586;28;20197;-83
2023/04/06 02:01:37;;;;;;;5.07;2.42;;;-2.40;99.90;;;;;;5109348;28;20207;-85
2023/04/06 02:04:04;;;;;;;4.00;1.73;;;-2.50;99.90;;;;;;5105067;28;20739;-84
2023/04/06 02:06:31;;;;;;;2.40;1.73;;;-2.50;99.90;;;;;;5098006;28;20193;-82
2023/04/06 02:08:58;;;;;;;4.93;1.40;;;-2.50;99.90;;;;;;5103297;28;20205;-83
2023/04/06 02:11:25;;;;;;;3.47;1.65;;;-2.60;99.90;;;;;;5108956;28;20200;-84
2023/04/06 02:13:53;;;;;;;2.70;1.20;;;-2.60;99.90;;;;;;5101511;28;20206;-84
2023/04/06 02:16:20;;;;;;;2.85;2.10;;;-2.60;99.90;;;;;;5107911;28;20193;-83
2023/04/06 02:18:48;;;;;;;2.40;1.85;;;-2.50;99.90;;;;;;5099539;28;20205;-84
2023/04/06 02:21:19;;;;;;;1.38;1.20;;;-2.50;99.90;;;;;;5108608;28;20212;-81
2023/04/06 02:23:46;;;;;;;3.45;1.45;;;-2.50;99.90;;;;;;5107409;28;20277;-83
2023/04/06 02:26:14;;;;;;;3.63;2.42;;;-2.50;99.90;;;;;;5095951;28;20280;-84
2023/04/06 02:28:41;;;;;;;1.20;1.10;;;-2.50;99.90;;;;;;5088847;28;20237;-84
2023/04/06 02:31:10;;;;;;;1.60;1.30;;;-2.40;99.90;;;;;;5096695;28;20197;-84
2023/04/06 02:33:37;;;;;;;1.80;1.30;;;-2.40;99.90;;;;;;5107822;28;20327;-82
2023/04/06 02:36:05;;;;;;;4.32;1.63;;;-2.40;99.90;;;;;;5108689;28;20262;-82
2023/04/06 02:38:32;;;;;;;3.72;2.22;;;-2.40;99.90;;;;;;5095116;28;20680;-81
2023/04/06 02:40:59;;;;;;;1.52;1.10;;;-2.40;99.90;;;;;;5108494;28;20268;-85
2023/04/06 02:43:26;;;;;;;3.17;1.40;;;-2.50;99.90;;;;;;5109889;27;20228;-83
2023/04/06 02:45:53;;;;;;;2.95;1.48;;;-2.40;99.90;;;;;;5102958;28;20259;-84
2023/04/06 02:48:22;;;;;;;2.40;1.70;;;-2.30;99.90;;;;;;5097603;28;20192;-83
2023/04/06 02:50:49;;;;;;;2.28;1.23;;;-2.20;99.90;;;;;;5096067;28;20200;-85
2023/04/06 02:53:16;;;;;;;1.60;1.25;;;-2.10;99.90;;;;;;5103160;28;20213;-81
2023/04/06 02:55:43;;;;;;;1.30;1.20;;;-2.20;99.90;;;;;;5108308;28;20211;-82
2023/04/06 02:58:10;;;;;;;2.15;1.80;;;-2.30;99.90;;;;;;5106624;28;20789;-83
2023/04/06 03:00:38;;;;;;;3.35;1.40;;;-2.50;99.90;;;;;;5102157;28;20236;-84
2023/04/06 03:03:05;;;;;;;2.67;1.70;;;-2.60;99.90;;;;;;5105625;28;20235;-85
2023/04/06 03:05:34;;;;;;;2.58;1.60;;;-2.80;99.90;;;;;;5103293;28;20197;-81
2023/04/06 03:08:01;;;;;;;5.53;1.55;;;-2.80;99.90;;;;;;5103759;28;20231;-82
2023/04/06 03:10:28;;;;;;;2.17;1.98;;;-2.80;99.90;;;;;;5110846;28;20213;-82
2023/04/06 03:12:55;;;;;;;6.25;1.95;;;-2.90;99.90;;;;;;5124456;28;20210;-81
2023/04/06 03:15:22;;;;;;;3.25;1.38;;;-3.00;99.90;;;;;;5129451;28;20649;-82
2023/04/06 03:17:49;;;;;;;2.50;1.63;;;-3.00;99.90;;;;;;5099334;28;20196;-83
2023/04/06 03:20:16;;;;;;;3.47;1.40;;;-3.00;99.90;;;;;;5099171;28;20204;-83
2023/04/06 03:22:45;;;;;;;1.88;1.63;;;-3.10;99.90;;;;;;5103107;28;20662;-85
2023/04/06 03:25:12;;;;;;;4.32;2.03;;;-3.10;99.90;;;;;;5102518;28;20224;-84
2023/04/06 03:27:39;;;;;;;2.72;1.70;;;-3.10;99.90;;;;;;5104270;28;20242;-81
2023/04/06 03:30:07;;;;;;;3.58;1.77;;;-3.20;99.90;;;;;;5099912;28;20673;-84
2023/04/06 03:32:34;;;;;;;2.17;1.80;;;-3.20;99.90;;;;;;5095410;28;20987;-84
2023/04/06 03:35:01;;;;;;;2.53;2.33;;;-3.30;99.90;;;;;;5106957;28;20544;-81
2023/04/06 03:37:28;;;;;;;2.67;1.70;;;-3.30;99.90;;;;;;5103434;28;20200;-84
2023/04/06 03:39:57;;;;;;;3.05;2.13;;;-3.30;99.90;;;;;;5100310;28;20216;-84
2023/04/06 03:42:24;;;;;;;3.75;1.80;;;-3.30;99.90;;;;;;5103008;28;20201;-81
2023/04/06 03:44:51;;;;;;;4.45;1.88;;;-3.30;99.90;;;;;;5100968;28;20705;-82
2023/04/06 03:47:18;;;;;;;2.60;1.50;;;-3.40;99.90;;;;;;5098663;28;20678;-82
2023/04/06 03:49:45;;;;;;;1.85;1.27;;;-3.40;99.90;;;;;;5104954;28;20208;-81
2023/04/06 03:52:13;;;;;;;2.53;1.48;;;-3.40;99.90;;;;;;5102851;28;20200;-82
2023/04/06 03:54:40;;;;;;;6.75;1.75;;;-3.40;99.90;;;;;;5107230;28;20231;-84
2023/04/06 03:57:08;;;;;;;2.88;1.70;;;-3.40;99.90;;;;;;5096162;28;20291;-84
2023/04/06 03:59:35;;;;;;;2.60;1.80;;;-3.30;99.90;;;;;;5106551;28;20231;-84
2023/04/06 04:02:02;;;;;;;2.42;1.50;;;-3.30;99.90;;;;;;5101964;28;20203;-82
2023/04/06 04:04:29;;;;;;;1.85;1.25;;;-3.20;99.90;;;;;;5106267;28;20223;-82
2023/04/06 04:06:56;;;;;;;1.50;1.40;;;-3.10;99.90;;;;;;5100017;28;20212;-81
2023/04/06 04:09:23;;;;;;;2.72;1.10;;;-3.00;99.90;;;;;;5105065;28;20645;-81
2023/04/06 04:11:51;;;;;;;1.88;1.10;;;-3.10;99.90;;;;;;5101113;28;20209;-82
2023/04/06 04:14:19;;;;;;;0.95;0.93;;;-3.10;99.90;;;;;;5104733;28;20212;-83
2023/04/06 04:16:46;;;;;;;3.90;1.50;;;-3.20;99.90;;;;;;5093335;28;20689;-83
2023/04/06 04:19:14;;;;;;;2.97;1.40;;;-3.10;99.90;;;;;;5098354;28;20205;-82
2023/04/06 04:21:45;;;;;;;4.30;1.80;;;-3.10;99.90;;;;;;5099859;28;20308;-82
2023/04/06 04:24:12;;;;;;;1.60;1.42;;;-3.00;99.90;;;;;;5100323;28;20274;-83
2023/04/06 04:26:39;;;;;;;2.70;1.33;;;-3.10;99.90;;;;;;5092311;28;20204;-81
2023/04/06 04:29:07;;;;;;;2.22;1.48;;;-3.20;99.90;;;;;;5091822;28;20206;-83
2023/04/06 04:31:35;;;;;;;2.13;1.65;;;-3.00;99.90;;;;;;5106087;28;20211;-81
2023/04/06 04:34:03;;;;;;;2.40;1.70;;;-3.00;99.90;;;;;;5101736;28;20243;-83
2023/04/06 04:36:30;;;;;;;5.55;3.78;;;-2.90;99.90;;;;;;5102042;28;20201;-85
2023/04/06 04:38:57;;;;;;;18.10;12.73;;;-2.80;99.90;;;;;;5103320;28;20852;-81
2023/04/06 04:41:25;;;;;;;12.18;7.10;;;-2.70;99.90;;;;;;5100208;28;20228;-82
2023/04/06 04:43:52;;;;;;;14.80;9.82;;;-2.60;99.90;;;;;;5102073;28;20642;-82
2023/04/06 04:46:19;;;;;;;15.93;9.13;;;-2.60;99.90;;;;;;5102104;28;20220;-82
2023/04/06 04:48:47;;;;;;;43.75;21.92;;;-2.70;99.90;;;;;;5105629;28;20192;-85
2023/04/06 04:51:14;;;;;;;18.98;9.27;;;-2.80;99.90;;;;;;5091302;28;20212;-82
2023/04/06 04:53:42;;;;;;;7.15;4.38;;;-2.80;99.90;;;;;;5098782;28;20204;-85
2023/04/06 04:56:09;;;;;;;26.42;16.80;;;-2.90;99.90;;;;;;5100736;28;20200;-84
2023/04/06 04:58:36;;;;;;;90.18;43.30;;;-2.90;99.90;;;;;;5097444;28;20686;-84
2023/04/06 05:01:03;;;;;;;123.85;57.58;;;-2.90;99.90;;;;;;5109029;28;20616;-83
2023/04/06 05:03:30;;;;;;;303.13;125.68;;;-2.90;99.90;;;;;;5103539;28;20200;-85
2023/04/06 05:05:59;;;;;;;128.75;55.58;;;-2.90;99.90;;;;;;5112173;28;20200;-82
2023/04/06 05:08:26;;;;;;;78.80;42.70;;;-2.80;99.90;;;;;;5121748;28;20235;-82
2023/04/06 05:10:53;;;;;;;23.55;13.10;;;-2.80;99.90;;;;;;5124029;28;20219;-85
2023/04/06 05:13:20;;;;;;;10.27;8.00;;;-2.70;99.90;;;;;;5108071;28;20787;-83
2023/04/06 05:15:47;;;;;;;4.25;2.95;;;-2.60;99.90;;;;;;5092005;28;20205;-82
2023/04/06 05:18:14;;;;;;;4.20;3.80;;;-2.50;99.90;;;;;;5102494;28;20578;-83
2023/04/06 05:20:41;;;;;;;10.15;8.95;;;-2.50;99.90;;;;;;5097331;28;20205;-86
2023/04/06 05:23:10;;;;;;;6.63;4.75;;;-2.40;99.90;;;;;;5093139;28;20212;-83
2023/04/06 05:25:37;;;;;;;4.13;2.60;;;-2.30;99.90;;;;;;5101446;28;20221;-83
2023/04/06 05:28:04;;;;;;;5.47;4.85;;;-2.10;99.90;;;;;;5104291;28;20228;-83
2023/04/06 05:30:31;;;;;;;1.70;1.60;;;-2.00;99.90;;;;;;5101107;28;20197;-82
2023/04/06 05:32:59;;;;;;;2.00;1.90;;;-1.90;99.90;;;;;;5095800;28;20205;-82
2023/04/06 05:35:26;;;;;;;2.45;2.20;;;-1.80;99.90;;;;;;5087946;28;20620;-83
2023/04/06 05:37:53;;;;;;;10.48;3.15;;;-1.70;99.90;;;;;;5101760;28;20193;-82
2023/04/06 05:40:22;;;;;;;11.88;2.38;;;-1.50;99.90;;;;;;5102023;28;20652;-84
2023/04/06 05:42:49;;;;;;;4.60;2.72;;;-1.20;99.90;;;;;;5105671;28;20597;-84
2023/04/06 05:45:18;;;;;;;18.42;6.00;;;-1.00;99.90;;;;;;5106818;28;20222;-83
2023/04/06 05:47:45;;;;;;;6.50;4.00;;;-0.60;99.90;;;;;;5097691;28;20229;-86
2023/04/06 05:50:13;;;;;;;5.40;3.17;;;-0.50;99.90;;;;;;5102424;28;20633;-83
2023/04/06 05:52:42;;;;;;;5.10;2.40;;;-0.50;99.90;;;;;;5092936;28;20219;-84
2023/04/06 05:55:10;;;;;;;3.20;2.15;;;-0.40;99.90;;;;;;5103112;28;20946;-84
2023/04/06 05:57:39;;;;;;;4.15;2.08;;;-0.20;99.90;;;;;;5099907;28;20204;-83
2023/04/06 06:00:09;;;;;;;3.25;2.40;;;-0.10;99.90;;;;;;5102919;28;20201;-83
2023/04/06 06:02:36;;;;;;;4.38;1.45;;;-0.10;99.90;;;;;;5102625;28;20236;-84
2023/04/06 06:05:04;;;;;;;3.92;2.10;;;0.10;99.90;;;;;;5098730;28;20217;-82
2023/04/06 06:07:31;;;;;;;6.38;2.75;;;0.20;99.90;;;;;;5095910;28;20719;-83
2023/04/06 06:09:58;;;;;;;2.63;1.90;;;0.50;99.90;;;;;;5107276;28;20208;-85
2023/04/06 06:12:26;;;;;;;4.53;2.50;;;0.70;99.90;;;;;;5108542;28;20447;-83
2023/04/06 06:14:55;;;;;;;6.40;2.47;;;0.70;99.90;;;;;;5109031;28;20940;-84
2023/04/06 06:17:22;;;;;;;5.13;2.83;;;0.80;99.90;;;;;;5105653;28;20197;-85
2023/04/06 06:19:49;;;;;;;5.03;2.87;;;0.90;99.90;;;;;;5107602;28;20555;-84
2023/04/06 06:22:16;;;;;;;2.50;2.07;;;1.10;99.90;;;;;;5105987;28;20454;-83
2023/04/06 06:24:43;;;;;;;5.30;2.37;;;1.10;99.90;;;;;;5101529;28;20482;-82
2023/04/06 06:27:10;;;;;;;3.00;2.30;;;1.20;99.90;;;;;;5113072;27;20473;-83
2023/04/06 06:29:37;;;;;;;3.65;1.73;;;1.30;99.90;;;;;;5110714;27;20449;-82
2023/04/06 06:32:06;;;;;;;14.88;2.97;;;1.30;99.90;;;;;;5105475;28;20200;-85
2023/04/06 06:34:33;;;;;;;4.03;3.25;;;1.30;99.90;;;;;;5105793;28;20253;-84
2023/04/06 06:37:00;;;;;;;3.15;2.45;;;1.50;99.90;;;;;;5102321;28;20201;-83
2023/04/06 06:39:27;;;;;;;2.93;2.67;;;1.40;99.90;;;;;;5107196;28;20544;-83
2023/04/06 06:41:55;;;;;;;5.05;3.03;;;1.40;99.90;;;;;;5107261;28;20466;-85
2023/04/06 06:44:22;;;;;;;4.82;3.55;;;1.40;99.90;;;;;;5092147;28;20229;-83
2023/04/06 06:46:49;;;;;;;5.60;2.93;;;1.40;99.90;;;;;;5103103;28;20249;-84
2023/04/06 06:49:18;;;;;;;5.73;3.37;;;1.60;99.90;;;;;;5101660;28;20474;-84
2023/04/06 06:51:46;;;;;;;5.47;3.30;;;1.60;99.90;;;;;;5103904;28;20448;-87
2023/04/06 06:54:13;;;;;;;4.40;4.00;;;1.70;99.90;;;;;;5110388;28;20434;-86
2023/04/06 06:56:41;;;;;;;5.20;4.00;;;1.80;99.90;;;;;;5105103;28;21030;-83
2023/04/06 06:59:08;;;;;;;5.53;3.30;;;2.10;99.90;;;;;;5106095;28;20462;-81
2023/04/06 07:01:35;;;;;;;4.03;3.73;;;2.20;99.90;;;;;;5117460;28;20446;-81
2023/04/06 07:04:02;;;;;;;4.23;3.47;;;2.20;99.90;;;;;;5130765;28;20443;-83
2023/04/06 07:06:31;;;;;;;5.63;3.80;;;2.20;99.90;;;;;;5102310;27;20939;-81
2023/04/06 07:08:58;;;;;;;3.40;3.20;;;2.30;99.90;;;;;;5106149;27;20477;-82
2023/04/06 07:11:25;;;;;;;3.70;3.40;;;2.30;99.90;;;;;;5106216;28;20520;-80
2023/04/06 07:13:53;;;;;;;3.90;3.50;;;2.70;99.90;;;;;;5094420;28;20497;-83
2023/04/06 07:16:20;;;;;;;6.70;4.20;;;2.80;99.90;;;;;;5104953;28;20450;-81
2023/04/06 07:18:47;;;;;;;4.00;3.60;;;2.50;99.90;;;;;;5100257;28;20947;-80
2023/04/06 07:21:14;;;;;;;14.03;3.80;;;2.40;99.90;;;;;;5105570;28;20447;-74
2023/04/06 07:23:43;;;;;;;6.13;3.70;;;2.70;99.90;;;;;;5104283;28;20892;-81
2023/04/06 07:26:10;;;;;;;5.20;3.20;;;2.80;99.90;;;;;;5103383;28;20791;-77
2023/04/06 07:28:37;;;;;;;4.73;3.73;;;3.10;99.90;;;;;;5107386;28;20977;-74
2023/04/06 07:31:04;;;;;;;4.00;2.70;;;3.20;99.90;;;;;;5097771;28;20456;-73
2023/04/06 07:33:31;;;;;;;4.13;3.77;;;3.40;99.90;;;;;;5103812;28;20977;-75
2023/04/06 07:36:00;;;;;;;6.33;3.57;;;3.50;99.90;;;;;;5098913;28;20451;-74
2023/04/06 07:38:27;;;;;;;4.93;3.07;;;3.40;99.90;;;;;;5096483;28;21160;-74
2023/04/06 07:40:55;;;;;;;4.40;3.17;;;3.70;99.90;;;;;;5100682;28;20459;-77
2023/04/06 07:43:22;;;;;;;3.97;3.60;;;3.80;99.90;;;;;;5104488;28;20466;-75
2023/04/06 07:45:50;;;;;;;4.10;3.50;;;3.70;99.90;;;;;;5102059;28;20939;-77
2023/04/06 07:48:17;;;;;;;4.60;3.07;;;3.90;99.90;;;;;;5105545;28;20462;-78
2023/04/06 07:50:44;;;;;;;4.83;4.23;;;3.80;99.90;;;;;;5097688;28;20470;-77
2023/04/06 07:53:11;;;;;;;4.20;3.53;;;4.20;99.90;;;;;;5098949;28;20501;-75
2023/04/06 07:55:38;;;;;;;3.03;2.83;;;4.40;99.10;;;;;;5105412;28;20458;-75
2023/04/06 07:58:07;;;;;;;4.97;3.20;;;4.40;98.80;;;;;;5107540;28;20455;-76
2023/04/06 08:00:34;;;;;;;3.23;2.93;;;4.30;99.90;;;;;;5102591;28;20458;-75
2023/04/06 08:03:01;;;;;;;3.90;3.30;;;4.40;98.80;;;;;;5093330;28;20567;-78
2023/04/06 08:05:28;;;;;;;4.17;3.50;;;4.60;98.80;;;;;;5098152;28;20487;-78
2023/04/06 08:07:55;;;;;;;3.90;3.00;;;4.70;97.70;;;;;;5104623;28;20457;-75
2023/04/06 08:10:22;;;;;;;4.13;2.77;;;4.70;97.30;;;;;;5105845;28;20457;-75
2023/04/06 08:12:49;;;;;;;2.97;2.77;;;4.80;97.40;;;;;;5097725;28;20469;-78
2023/04/06 08:15:19;;;;;;;7.67;2.67;;;4.80;98.10;;;;;;5100630;28;20470;-75
2023/04/06 08:17:46;;;;;;;6.03;5.43;;;4.90;97.10;;;;;;5095739;28;20450;-75
2023/04/06 08:20:14;;;;;;;10.20;3.23;;;5.10;97.70;;;;;;5105604;28;20462;-77
2023/04/06 08:22:41;;;;;;;5.90;2.33;;;5.30;95.70;;;;;;5099404;28;20499;-76
2023/04/06 08:25:08;;;;;;;3.07;2.83;;;5.00;94.30;;;;;;5098312;28;20837;-75
2023/04/06 08:27:36;;;;;;;5.33;3.60;;;5.20;94.50;;;;;;5092495;28;20491;-77
2023/04/06 08:30:03;;;;;;;2.50;2.27;;;5.40;94.60;;;;;;5099873;28;20458;-75
2023/04/06 08:32:32;;;;;;;3.70;1.93;;;5.60;91.80;;;;;;5097289;28;20450;-75
2023/04/06 08:34:59;;;;;;;4.80;1.67;;;5.50;90.60;;;;;;5102236;28;20446;-77
2023/04/06 08:37:27;;;;;;;2.17;1.97;;;5.70;91.10;;;;;;5093985;28;20982;-78
2023/04/06 08:39:54;;;;;;;2.47;1.90;;;5.70;90.10;;;;;;5096668;28;20458;-76
2023/04/06 08:42:22;;;;;;;9.97;2.50;;;5.80;84.40;;;;;;5097068;28;20475;-78
2023/04/06 08:44:52;;;;;;;7.33;3.93;;;5.90;86.70;;;;;;5102124;28;20459;-79
2023/04/06 08:47:19;;;;;;;3.37;3.07;;;6.00;86.90;;;;;;5103217;28;20457;-80
2023/04/06 08:49:48;;;;;;;17.40;11.30;;;6.20;87.20;;;;;;5101621;28;20455;-76
2023/04/06 08:52:18;;;;;;;3.93;2.53;;;6.40;89.50;;;;;;5107325;28;20458;-76
2023/04/06 08:54:45;;;;;;;4.50;2.30;;;6.40;88.10;;;;;;5114163;28;20442;-77
2023/04/06 08:57:13;;;;;;;7.33;3.00;;;6.60;82.30;;;;;;5112599;28;20467;-76
2023/04/06 08:59:41;;;;;;;8.23;5.53;;;6.90;81.70;;;;;;5107426;28;20450;-75
2023/04/06 09:02:11;;;;;;;6.90;4.57;;;6.80;82.00;;;;;;5094836;28;20501;-76
2023/04/06 09:04:39;;;;;;;3.20;2.87;;;6.80;81.10;;;;;;5097955;28;20470;-79
2023/04/06 09:07:08;;;;;;;2.10;1.90;;;7.00;81.00;;;;;;5100761;28;20461;-79
2023/04/06 09:09:35;;;;;;;2.53;1.87;;;7.00;81.50;;;;;;5095102;28;20464;-79
2023/04/06 09:12:05;;;;;;;3.90;1.57;;;7.40;82.00;;;;;;5101031;28;20451;-77
2023/04/06 09:14:37;;;;;;;2.00;1.90;;;7.60;75.60;;;;;;5096131;28;20481;-75
2023/04/06 09:17:04;;;;;;;3.00;2.80;;;7.50;78.70;;;;;;5096865;28;20534;-75
2023/04/06 09:19:31;;;;;;;3.90;2.27;;;7.50;80.70;;;;;;5105621;28;20465;-76
2023/04/06 09:22:06;;;;;;;2.93;2.23;;;7.60;77.80;;;;;;5104630;28;20450;-75
2023/04/06 09:24:46;;;;;;;4.27;3.00;;;7.30;80.00;;;;;;5103979;28;20450;-76
2023/04/06 09:27:14;;;;;;;3.77;3.47;;;7.00;73.50;;;;;;5101357;28;20527;-76
2023/04/06 09:29:41;;;;;;;2.90;1.67;;;7.10;76.50;;;;;;5106117;28;20458;-76
2023/04/06 09:32:11;;;;;;;13.57;7.67;;;7.10;74.00;;;;;;5107869;28;20461;-76
2023/04/06 09:34:39;;;;;;;4.23;3.60;;;7.10;77.30;;;;;;5107355;28;20459;-74
2023/04/06 09:37:24;;;;;;;2.90;2.20;;;7.10;70.60;;;;;;5104351;28;20466;-78
2023/04/06 09:40:05;;;;;;;1.53;1.43;;;6.90;69.70;;;;;;5106125;28;20462;-79
2023/04/06 09:42:32;;;;;;;1.60;1.50;;;6.90;68.10;;;;;;5098025;28;20451;-75
2023/04/06 09:44:59;;;;;;;6.47;3.17;;;6.90;71.50;;;;;;5107525;28;20466;-75
2023/04/06 09:47:26;;;;;;;3.57;2.43;;;6.90;72.30;;;;;;5095068;28;20529;-76
2023/04/06 09:49:57;;;;;;;2.40;1.60;;;7.10;72.10;;;;;;5103090;28;21000;-77
2023/04/06 09:52:28;;;;;;;5.07;3.50;;;7.30;74.30;;;;;;5099395;28;20527;-75
2023/04/06 09:55:02;;;;;;;2.23;1.67;;;7.10;66.30;;;;;;5096972;28;20964;-76
2023/04/06 09:57:33;;;;;;;6.40;2.10;;;7.10;69.90;;;;;;5105511;28;20453;-76
2023/04/06 10:00:08;;;;;;;6.17;3.93;;;7.10;66.30;;;;;;5099632;28;20504;-75
2023/04/06 10:02:42;;;;;;;3.70;2.33;;;7.20;67.20;;;;;;5098422;28;20474;-77
2023/04/06 10:05:14;;;;;;;3.90;2.50;;;7.60;70.00;;;;;;5097332;28;20462;-75
2023/04/06 10:07:42;;;;;;;2.77;2.50;;;7.50;64.10;;;;;;5098708;28;21068;-77
2023/04/06 10:10:12;;;;;;;5.10;3.50;;;7.30;59.60;;;;;;5105097;28;20457;-75
2023/04/06 10:12:40;;;;;;;4.10;3.50;;;7.30;63.30;;;;;;5100550;28;20458;-78
2023/04/06 10:15:09;;;;;;;4.73;3.10;;;7.40;65.20;;;;;;5101850;28;20451;-76
2023/04/06 10:17:36;;;;;;;4.37;3.20;;;7.70;63.70;;;;;;5099400;28;20474;-75
2023/04/06 10:20:08;;;;;;;10.03;7.00;;;7.80;71.10;;;;;;5101508;28;20455;-76
2023/04/06 10:22:43;;;;;;;3.43;2.73;;;7.90;60.80;;;;;;5104541;28;20471;-78
2023/04/06 10:25:11;;;;;;;2.77;2.57;;;7.90;62.40;;;;;;5106619;28;20470;-75
2023/04/06 10:27:38;;;;;;;4.67;3.00;;;8.10;64.50;;;;;;5093616;28;20478;-77
2023/04/06 10:30:07;;;;;;;5.90;3.10;;;8.20;66.20;;;;;;5099904;28;20463;-77
2023/04/06 10:32:36;;;;;;;4.80;3.80;;;8.10;68.70;;;;;;5103952;28;20481;-76
2023/04/06 10:35:08;;;;;;;4.70;2.70;;;8.30;66.40;;;;;;5101405;28;20923;-75
2023/04/06 10:37:48;;;;;;;21.10;8.67;;;8.10;58.90;;;;;;5094166;28;20469;-76
2023/04/06 10:40:25;;;;;;;20.80;13.00;;;8.30;62.90;;;;;;5096634;28;20455;-78
2023/04/06 10:42:53;;;;;;;2.93;2.60;;;8.40;61.60;;;;;;5107539;28;20933;-75
2023/04/06 10:45:21;;;;;;;6.67;3.10;;;8.20;63.70;;;;;;5111665;28;20799;-76
2023/04/06 10:47:48;;;;;;;2.37;2.17;;;8.10;56.00;;;;;;5113841;28;20455;-75
2023/04/06 10:50:17;;;;;;;2.73;2.50;;;8.10;56.50;;;;;;5111025;28;20458;-76
2023/04/06 10:52:46;;;;;;;3.07;2.00;;;8.10;57.40;;;;;;5109148;28;20446;-75
2023/04/06 10:55:14;;;;;;;3.23;2.50;;;8.20;62.50;;;;;;5104305;28;20509;-76
2023/04/06 10:57:43;;;;;;;3.47;2.60;;;8.20;58.70;;;;;;5101999;28;20473;-86
2023/04/06 11:00:13;;;;;;;2.03;1.93;;;8.10;58.20;;;;;;5094645;28;20500;-76
2023/04/06 11:02:41;;;;;;;2.53;2.30;;;8.30;60.70;;;;;;5106168;28;20463;-76
2023/04/06 11:05:09;;;;;;;2.60;2.23;;;8.20;57.00;;;;;;5105506;28;21078;-76
2023/04/06 11:07:36;;;;;;;5.57;2.67;;;8.40;58.10;;;;;;5104143;28;20489;-75
2023/04/06 11:10:03;;;;;;;5.13;3.43;;;8.60;65.30;;;;;;5104341;28;20447;-77
2023/04/06 11:12:31;;;;;;;2.80;2.20;;;8.80;58.40;;;;;;5106750;28;20443;-76
2023/04/06 11:15:04;;;;;;;5.10;2.87;;;8.80;62.50;;;;;;5106887;28;20454;-75
2023/04/06 11:17:32;;;;;;;4.17;2.40;;;8.70;59.20;;;;;;5097203;28;20523;-75
2023/04/06 11:19:59;;;;;;;3.63;2.77;;;8.80;61.70;;;;;;5089744;28;20460;-77
2023/04/06 11:22:27;;;;;;;2.93;2.73;;;8.90;57.40;;;;;;5093689;28;20462;-75
2023/04/06 11:24:54;;;;;;;3.93;2.37;;;8.90;57.40;;;;;;5093291;28;20464;-76
2023/04/06 11:27:22;;;;;;;4.33;3.20;;;9.10;62.40;;;;;;5104909;28;20494;-75
2023/04/06 11:29:50;;;;;;;2.73;2.40;;;8.80;60.20;;;;;;5102730;28;20711;-75
2023/04/06 11:32:25;;;;;;;3.63;3.13;;;8.80;61.90;;;;;;5104936;28;20832;-77
2023/04/06 11:34:52;;;;;;;2.80;2.60;;;8.40;57.50;;;;;;5095042;28;20507;-76
2023/04/06 11:37:19;;;;;;;5.60;3.27;;;8.50;57.70;;;;;;5100945;28;20947;-77
2023/04/06 11:39:50;;;;;;;2.17;2.07;;;8.70;59.90;;;;;;5092278;28;20931;-75
2023/04/06 11:42:23;;;;;;;3.70;3.40;;;8.70;55.50;;;;;;5105804;28;20526;-76
2023/04/06 11:44:56;;;;;;;3.00;2.37;;;8.80;57.10;;;;;;5105363;28;20535;-76
2023/04/06 11:47:31;;;;;;;3.70;3.20;;;9.10;58.00;;;;;;5092681;28;21059;-75
2023/04/06 11:50:07;;;;;;;3.50;3.20;;;8.90;57.50;;;;;;5105869;27;20490;-76
2023/04/06 11:52:34;;;;;;;6.30;3.57;;;8.60;56.00;;;;;;5103405;28;20474;-75
2023/04/06 11:55:12;;;;;;;3.50;3.20;;;8.60;57.90;;;;;;5099611;28;20475;-77
2023/04/06 11:57:39;;;;;;;4.00;3.63;;;9.00;56.20;;;;;;5100731;28;20451;-77
2023/04/06 12:00:08;;;;;;;3.83;3.50;;;8.60;55.00;;;;;;5102330;28;20479;-79
2023/04/06 12:02:36;;;;;;;3.60;3.30;;;8.70;56.90;;;;;;5100023;28;20474;-77
2023/04/06 12:05:05;;;;;;;3.93;3.53;;;8.30;55.50;;;;;;5097349;28;20491;-76
2023/04/06 12:07:32;;;;;;;9.03;3.90;;;7.90;58.40;;;;;;5093778;28;20486;-78
2023/04/06 12:10:00;;;;;;;7.27;3.83;;;8.30;59.80;;;;;;5101209;28;20458;-77
2023/04/06 12:12:27;;;;;;;3.53;3.13;;;8.60;56.10;;;;;;5100326;28;20523;-77
2023/04/06 12:14:54;;;;;;;6.10;3.63;;;8.70;56.00;;;;;;5102024;28;20463;-79
2023/04/06 12:17:21;;;;;;;2.60;2.40;;;8.60;53.10;;;;;;5098869;28;20457;-77
2023/04/06 12:19:49;;;;;;;3.33;3.13;;;8.90;55.00;;;;;;5098547;28;20466;-78
2023/04/06 12:22:17;;;;;;;3.73;3.23;;;9.00;53.10;;;;;;5091489;28;20457;-77
2023/04/06 12:24:44;;;;;;;3.90;3.60;;;9.00;55.60;;;;;;5094019;28;20451;-74
2023/04/06 12:27:11;;;;;;;3.50;3.20;;;9.40;58.40;;;;;;5097725;28;20888;-74
2023/04/06 12:29:38;;;;;;;3.27;3.07;;;9.30;54.10;;;;;;5095169;28;20466;-76
2023/04/06 12:32:06;;;;;;;4.83;3.53;;;9.30;52.50;;;;;;5102003;28;20438;-74
2023/04/06 12:34:33;;;;;;;3.83;2.80;;;9.20;53.30;;;;;;5098368;28;20456;-72
2023/04/06 12:37:02;;;;;;;4.47;3.03;;;9.50;54.10;;;;;;5096086;28;20454;-76
2023/04/06 12:39:29;;;;;;;2.77;2.50;;;9.40;54.10;;;;;;5112478;28;20477;-76
2023/04/06 12:41:57;;;;;;;3.73;2.50;;;9.30;52.10;;;;;;5112236;28;20450;-74
2023/04/06 12:44:24;;;;;;;3.47;3.17;;;9.70;53.10;;;;;;5107730;28;20541;-75
2023/04/06 12:46:52;;;;;;;6.90;3.73;;;10.10;56.10;;;;;;5098525;28;21018;-75
2023/04/06 12:49:19;;;;;;;4.90;3.30;;;9.80;50.70;;;;;;5087631;28;20497;-75
2023/04/06 12:51:46;;;;;;;3.03;2.77;;;9.60;54.30;;;;;;5096329;28;20470;-76
2023/04/06 12:54:15;;;;;;;2.53;2.30;;;9.80;52.50;;;;;;5097600;28;20528;-78